sensor_id;sensor_type;location;lat;lon;timestamp;pressure;altitude;pressure_sealevel;temperature;humidity
40982;BME280;26708;50.304;19.028;2023-12-14T00:00:04;96789.19;;;5.36;66.13
40982;BME280;26708;50.304;19.028;2023-12-14T00:02:13;96804.69;;;5.41;65.84
40982;BME280;26708;50.304;19.028;2023-12-14T00:06:54;96984.28;;;6.42;65.39
40982;BME280;26708;50.304;19.028;2023-12-14T00:09:01;97003.16;;;6.59;65.50
40982;BME280;26708;50.304;19.028;2023-12-14T00:11:08;96856.16;;;5.75;65.30
40982;BME280;26708;50.304;19.028;2023-12-14T00:13:19;96993.72;;;6.51;65.29
40982;BME280;26708;50.304;19.028;2023-12-14T00:15:26;96993.75;;;6.49;65.22
40982;BME280;26708;50.304;19.028;2023-12-14T00:17:33;97016.91;;;6.67;64.98
40982;BME280;26708;50.304;19.028;2023-12-14T00:19:44;97013.44;;;6.67;65.12
40982;BME280;26708;50.304;19.028;2023-12-14T00:21:52;96980.84;;;6.43;65.24
40982;BME280;26708;50.304;19.028;2023-12-14T00:24:24;96935.41;;;6.08;65.30
40982;BME280;26708;50.304;19.028;2023-12-14T00:26:33;96954.16;;;6.31;65.28
40982;BME280;26708;50.304;19.028;2023-12-14T00:28:43;96990.22;;;6.55;65.09
40982;BME280;26708;50.304;19.028;2023-12-14T00:30:50;96923.25;;;6.10;64.95
40982;BME280;26708;50.304;19.028;2023-12-14T00:35:17;97042.69;;;6.87;64.87
40982;BME280;26708;50.304;19.028;2023-12-14T00:37:22;96991.91;;;6.59;64.55
40982;BME280;26708;50.304;19.028;2023-12-14T00:39:33;96906.84;;;6.08;64.68
40982;BME280;26708;50.304;19.028;2023-12-14T00:41:41;96907.06;;;5.88;64.63
40982;BME280;26708;50.304;19.028;2023-12-14T00:43:48;96893.13;;;5.95;64.42
40982;BME280;26708;50.304;19.028;2023-12-14T00:45:55;97056.41;;;6.99;64.44
40982;BME280;26708;50.304;19.028;2023-12-14T00:47:59;97060.69;;;7.02;64.43
40982;BME280;26708;50.304;19.028;2023-12-14T00:50:05;97064.97;;;7.04;64.26
40982;BME280;26708;50.304;19.028;2023-12-14T00:52:13;96980.75;;;6.49;64.25
40982;BME280;26708;50.304;19.028;2023-12-14T00:54:19;97030.53;;;6.87;64.10
40982;BME280;26708;50.304;19.028;2023-12-14T00:56:27;96921.53;;;6.09;64.26
40982;BME280;26708;50.304;19.028;2023-12-14T00:58:33;96937.75;;;6.27;63.95
40982;BME280;26708;50.304;19.028;2023-12-14T01:00:41;97066.66;;;7.10;63.75
40982;BME280;26708;50.304;19.028;2023-12-14T01:02:45;96939.59;;;6.15;63.50
40982;BME280;26708;50.304;19.028;2023-12-14T01:07:50;97043.59;;;6.86;63.54
40982;BME280;26708;50.304;19.028;2023-12-14T01:09:59;96894.06;;;5.90;63.70
40982;BME280;26708;50.304;19.028;2023-12-14T01:12:07;97082.38;;;7.01;63.56
40982;BME280;26708;50.304;19.028;2023-12-14T01:14:12;97077.22;;;6.96;63.81
40982;BME280;26708;50.304;19.028;2023-12-14T01:16:28;96977.63;;;6.22;63.85
40982;BME280;26708;50.304;19.028;2023-12-14T01:18:33;97057.53;;;6.77;64.18
40982;BME280;26708;50.304;19.028;2023-12-14T01:20:36;97055.84;;;6.75;64.11
40982;BME280;26708;50.304;19.028;2023-12-14T01:22:46;97034.47;;;6.47;64.26
40982;BME280;26708;50.304;19.028;2023-12-14T01:24:57;97085.94;;;6.92;64.33
40982;BME280;26708;50.304;19.028;2023-12-14T01:27:02;96957.78;;;6.16;64.19
40982;BME280;26708;50.304;19.028;2023-12-14T01:29:13;97088.56;;;6.92;64.46
40982;BME280;26708;50.304;19.028;2023-12-14T01:31:21;96944.84;;;6.12;64.24
40982;BME280;26708;50.304;19.028;2023-12-14T01:33:29;96981.81;;;6.35;64.09
40982;BME280;26708;50.304;19.028;2023-12-14T01:35:34;96890.69;;;5.83;64.03
40982;BME280;26708;50.304;19.028;2023-12-14T01:37:41;97032.59;;;6.61;64.08
40982;BME280;26708;50.304;19.028;2023-12-14T01:39:48;96961.97;;;6.31;64.13
40982;BME280;26708;50.304;19.028;2023-12-14T01:41:55;97078.16;;;6.92;63.56
40982;BME280;26708;50.304;19.028;2023-12-14T01:43:59;97083.41;;;6.88;63.99
40982;BME280;26708;50.304;19.028;2023-12-14T01:46:05;96976.06;;;6.09;64.08
40982;BME280;26708;50.304;19.028;2023-12-14T01:48:10;97082.53;;;6.89;64.04
40982;BME280;26708;50.304;19.028;2023-12-14T01:50:19;97081.69;;;6.87;63.69
40982;BME280;26708;50.304;19.028;2023-12-14T01:52:27;97072.25;;;6.78;63.77
40982;BME280;26708;50.304;19.028;2023-12-14T01:54:50;97051.59;;;6.63;63.89
40982;BME280;26708;50.304;19.028;2023-12-14T01:57:00;97074.03;;;6.73;64.16
40982;BME280;26708;50.304;19.028;2023-12-14T01:59:06;97060.34;;;6.59;64.11
40982;BME280;26708;50.304;19.028;2023-12-14T02:01:33;96958.84;;;5.99;64.05
40982;BME280;26708;50.304;19.028;2023-12-14T02:03:45;97077.53;;;6.71;64.02
40982;BME280;26708;50.304;19.028;2023-12-14T02:05:54;97072.34;;;6.69;64.08
40982;BME280;26708;50.304;19.028;2023-12-14T02:08:09;97071.47;;;6.69;64.06
40982;BME280;26708;50.304;19.028;2023-12-14T02:10:14;97089.69;;;6.67;63.92
40982;BME280;26708;50.304;19.028;2023-12-14T02:12:16;97072.34;;;6.68;64.10
40982;BME280;26708;50.304;19.028;2023-12-14T02:14:22;97068.03;;;6.67;64.16
40982;BME280;26708;50.304;19.028;2023-12-14T02:16:28;97046.75;;;6.36;63.82
40982;BME280;26708;50.304;19.028;2023-12-14T02:18:33;97068.13;;;6.58;64.02
40982;BME280;26708;50.304;19.028;2023-12-14T02:20:41;97069.03;;;6.54;64.25
40982;BME280;26708;50.304;19.028;2023-12-14T02:22:51;96928.09;;;5.61;64.31
40982;BME280;26708;50.304;19.028;2023-12-14T02:24:59;96942.63;;;5.77;64.32
40982;BME280;26708;50.304;19.028;2023-12-14T02:27:09;97065.63;;;6.50;64.26
40982;BME280;26708;50.304;19.028;2023-12-14T02:29:13;97062.22;;;6.42;64.40
40982;BME280;26708;50.304;19.028;2023-12-14T02:31:19;96974.47;;;5.94;64.46
40982;BME280;26708;50.304;19.028;2023-12-14T02:33:26;97011.50;;;6.11;64.57
40982;BME280;26708;50.304;19.028;2023-12-14T02:35:32;97002.19;;;5.94;64.29
40982;BME280;26708;50.304;19.028;2023-12-14T02:37:40;96935.84;;;5.66;64.27
40982;BME280;26708;50.304;19.028;2023-12-14T02:39:50;97093.28;;;6.56;64.48
40982;BME280;26708;50.304;19.028;2023-12-14T02:41:55;97131.38;;;6.58;64.45
40982;BME280;26708;50.304;19.028;2023-12-14T02:43:59;97029.59;;;6.20;64.45
40982;BME280;26708;50.304;19.028;2023-12-14T02:46:04;97077.81;;;6.42;64.28
40982;BME280;26708;50.304;19.028;2023-12-14T02:48:13;97050.44;;;6.16;64.28
40982;BME280;26708;50.304;19.028;2023-12-14T02:50:21;97078.69;;;6.43;64.22
40982;BME280;26708;50.304;19.028;2023-12-14T02:52:27;97109.56;;;6.71;64.08
40982;BME280;26708;50.304;19.028;2023-12-14T02:54:29;97102.63;;;6.73;64.01
40982;BME280;26708;50.304;19.028;2023-12-14T02:56:42;97113.91;;;6.75;63.98
40982;BME280;26708;50.304;19.028;2023-12-14T02:58:47;97002.81;;;6.17;64.00
40982;BME280;26708;50.304;19.028;2023-12-14T03:00:52;96962.47;;;5.83;63.89
40982;BME280;26708;50.304;19.028;2023-12-14T03:02:58;97111.22;;;6.81;63.94
40982;BME280;26708;50.304;19.028;2023-12-14T03:04:59;97112.94;;;6.82;63.90
40982;BME280;26708;50.304;19.028;2023-12-14T03:07:04;97121.59;;;6.83;63.63
40982;BME280;26708;50.304;19.028;2023-12-14T03:09:10;97129.38;;;6.84;63.85
40982;BME280;26708;50.304;19.028;2023-12-14T03:11:21;97106.19;;;6.65;63.88
40982;BME280;26708;50.304;19.028;2023-12-14T03:13:29;97112.13;;;6.76;63.61
40982;BME280;26708;50.304;19.028;2023-12-14T03:15:35;97132.81;;;6.86;63.64
40982;BME280;26708;50.304;19.028;2023-12-14T03:17:41;97131.97;;;6.86;63.66
40982;BME280;26708;50.304;19.028;2023-12-14T03:19:46;97005.56;;;5.99;63.79
40982;BME280;26708;50.304;19.028;2023-12-14T03:21:51;97088.94;;;6.58;63.63
40982;BME280;26708;50.304;19.028;2023-12-14T03:23:56;97138.00;;;6.88;63.81
40982;BME280;26708;50.304;19.028;2023-12-14T03:26:03;97085.50;;;6.53;63.56
40982;BME280;26708;50.304;19.028;2023-12-14T03:28:06;97005.50;;;6.06;63.47
40982;BME280;26708;50.304;19.028;2023-12-14T03:30:13;97130.28;;;6.80;63.47
40982;BME280;26708;50.304;19.028;2023-12-14T03:32:19;97048.44;;;6.39;63.50
40982;BME280;26708;50.304;19.028;2023-12-14T03:34:27;97140.56;;;6.91;63.72
40982;BME280;26708;50.304;19.028;2023-12-14T03:36:34;97159.66;;;6.90;63.70
40982;BME280;26708;50.304;19.028;2023-12-14T03:38:37;97152.78;;;6.86;63.66
40982;BME280;26708;50.304;19.028;2023-12-14T03:40:45;97126.13;;;6.63;63.56
40982;BME280;26708;50.304;19.028;2023-12-14T03:42:50;97139.91;;;6.74;63.57
40982;BME280;26708;50.304;19.028;2023-12-14T03:44:56;97151.13;;;6.76;63.40
40982;BME280;26708;50.304;19.028;2023-12-14T03:47:06;97186.47;;;6.92;63.76
40982;BME280;26708;50.304;19.028;2023-12-14T03:49:13;97180.44;;;6.93;63.50
40982;BME280;26708;50.304;19.028;2023-12-14T03:51:17;97081.44;;;6.29;63.55
40982;BME280;26708;50.304;19.028;2023-12-14T03:53:25;97177.00;;;6.88;63.39
40982;BME280;26708;50.304;19.028;2023-12-14T03:55:32;97185.63;;;6.93;63.60
40982;BME280;26708;50.304;19.028;2023-12-14T03:57:39;97183.09;;;6.87;63.74
40982;BME280;26708;50.304;19.028;2023-12-14T03:59:47;97190.84;;;6.90;63.74
40982;BME280;26708;50.304;19.028;2023-12-14T04:01:52;97114.22;;;6.41;63.79
40982;BME280;26708;50.304;19.028;2023-12-14T04:03:59;97193.50;;;6.84;63.97
40982;BME280;26708;50.304;19.028;2023-12-14T04:06:05;97209.06;;;6.88;64.16
40982;BME280;26708;50.304;19.028;2023-12-14T04:08:10;97125.56;;;6.34;64.00
40982;BME280;26708;50.304;19.028;2023-12-14T04:10:15;97120.31;;;6.37;64.17
40982;BME280;26708;50.304;19.028;2023-12-14T04:12:22;97020.63;;;5.61;63.88
40982;BME280;26708;50.304;19.028;2023-12-14T04:14:27;97202.25;;;6.72;64.24
40982;BME280;26708;50.304;19.028;2023-12-14T04:16:32;97220.34;;;6.87;64.32
40982;BME280;26708;50.304;19.028;2023-12-14T04:18:42;97229.88;;;6.87;64.24
40982;BME280;26708;50.304;19.028;2023-12-14T04:20:48;97104.91;;;6.20;64.43
40982;BME280;26708;50.304;19.028;2023-12-14T04:22:52;97127.31;;;6.32;64.34
40982;BME280;26708;50.304;19.028;2023-12-14T04:24:58;97130.78;;;6.31;64.30
40982;BME280;26708;50.304;19.028;2023-12-14T04:27:03;97203.16;;;6.74;64.38
40982;BME280;26708;50.304;19.028;2023-12-14T04:29:05;97229.84;;;6.88;64.57
40982;BME280;26708;50.304;19.028;2023-12-14T04:31:13;97142.06;;;6.27;64.49
40982;BME280;26708;50.304;19.028;2023-12-14T04:33:29;97235.09;;;6.85;64.63
40982;BME280;26708;50.304;19.028;2023-12-14T04:35:34;97223.94;;;6.71;64.60
40982;BME280;26708;50.304;19.028;2023-12-14T04:37:43;97243.72;;;6.89;64.80
40982;BME280;26708;50.304;19.028;2023-12-14T04:39:47;97229.94;;;6.81;64.57
40982;BME280;26708;50.304;19.028;2023-12-14T04:41:53;97249.81;;;6.86;64.84
40982;BME280;26708;50.304;19.028;2023-12-14T04:44:04;97274.97;;;6.84;64.76
40982;BME280;26708;50.304;19.028;2023-12-14T04:46:08;97146.44;;;6.22;64.80
40982;BME280;26708;50.304;19.028;2023-12-14T04:48:12;97250.69;;;6.87;64.68
40982;BME280;26708;50.304;19.028;2023-12-14T04:50:18;97124.94;;;6.05;64.55
40982;BME280;26708;50.304;19.028;2023-12-14T04:52:25;97263.69;;;6.85;64.63
40982;BME280;26708;50.304;19.028;2023-12-14T04:54:36;97140.53;;;6.03;64.72
40982;BME280;26708;50.304;19.028;2023-12-14T04:56:45;97151.66;;;6.17;64.73
40982;BME280;26708;50.304;19.028;2023-12-14T04:58:50;97270.63;;;6.85;64.94
40982;BME280;26708;50.304;19.028;2023-12-14T05:00:55;97262.84;;;6.82;64.96
40982;BME280;26708;50.304;19.028;2023-12-14T05:03:01;97042.44;;;5.36;64.99
40982;BME280;26708;50.304;19.028;2023-12-14T05:05:08;97251.72;;;6.65;65.18
40982;BME280;26708;50.304;19.028;2023-12-14T05:07:13;97265.59;;;6.64;65.07
40982;BME280;26708;50.304;19.028;2023-12-14T05:09:19;97258.59;;;6.69;65.08
40982;BME280;26708;50.304;19.028;2023-12-14T05:11:27;97286.22;;;6.86;64.90
40982;BME280;26708;50.304;19.028;2023-12-14T05:13:31;97264.69;;;6.71;64.89
40982;BME280;26708;50.304;19.028;2023-12-14T05:15:37;97241.38;;;6.59;64.67
40982;BME280;26708;50.304;19.028;2023-12-14T05:17:45;97288.03;;;6.80;64.76
40982;BME280;26708;50.304;19.028;2023-12-14T05:19:49;97268.19;;;6.64;64.79
40982;BME280;26708;50.304;19.028;2023-12-14T05:21:55;97301.81;;;6.85;64.70
40982;BME280;26708;50.304;19.028;2023-12-14T05:24:00;97299.22;;;6.85;64.97
40982;BME280;26708;50.304;19.028;2023-12-14T05:26:06;97304.41;;;6.86;64.81
40982;BME280;26708;50.304;19.028;2023-12-14T05:28:17;97315.69;;;6.85;64.74
40982;BME280;26708;50.304;19.028;2023-12-14T05:30:24;97308.78;;;6.86;64.85
40982;BME280;26708;50.304;19.028;2023-12-14T05:32:30;97232.06;;;6.34;64.80
40982;BME280;26708;50.304;19.028;2023-12-14T05:34:38;97315.66;;;6.90;64.76
40982;BME280;26708;50.304;19.028;2023-12-14T05:36:44;97317.38;;;6.91;64.66
40982;BME280;26708;50.304;19.028;2023-12-14T05:38:48;97220.03;;;6.21;64.65
40982;BME280;26708;50.304;19.028;2023-12-14T05:40:54;97327.78;;;6.91;64.82
40982;BME280;26708;50.304;19.028;2023-12-14T05:43:25;97324.34;;;6.89;64.82
40982;BME280;26708;50.304;19.028;2023-12-14T05:45:30;97339.06;;;6.88;64.86
40982;BME280;26708;50.304;19.028;2023-12-14T05:47:37;97336.47;;;6.88;64.75
40982;BME280;26708;50.304;19.028;2023-12-14T05:52:16;97103.78;;;5.41;64.74
40982;BME280;26708;50.304;19.028;2023-12-14T05:54:24;97213.19;;;6.11;64.78
40982;BME280;26708;50.304;19.028;2023-12-14T05:56:31;97349.44;;;6.91;64.55
40982;BME280;26708;50.304;19.028;2023-12-14T05:58:39;97346.00;;;6.88;64.63
40982;BME280;26708;50.304;19.028;2023-12-14T06:00:48;97346.91;;;6.85;64.67
40982;BME280;26708;50.304;19.028;2023-12-14T06:02:56;97250.31;;;6.25;64.90
40982;BME280;26708;50.304;19.028;2023-12-14T06:05:01;97354.69;;;6.84;64.77
40982;BME280;26708;50.304;19.028;2023-12-14T06:07:09;97355.56;;;6.83;64.87
40982;BME280;26708;50.304;19.028;2023-12-14T06:09:13;97353.84;;;6.82;64.97
40982;BME280;26708;50.304;19.028;2023-12-14T06:11:20;97322.81;;;6.58;64.93
40982;BME280;26708;50.304;19.028;2023-12-14T06:13:24;97347.81;;;6.72;65.13
40982;BME280;26708;50.304;19.028;2023-12-14T06:15:35;97361.66;;;6.83;65.05
40982;BME280;26708;50.304;19.028;2023-12-14T06:17:41;97334.94;;;6.62;65.10
40982;BME280;26708;50.304;19.028;2023-12-14T06:19:47;97377.22;;;6.85;65.06
40982;BME280;26708;50.304;19.028;2023-12-14T06:21:54;97381.56;;;6.86;64.90
40982;BME280;26708;50.304;19.028;2023-12-14T06:24:00;97292.66;;;6.34;64.79
40982;BME280;26708;50.304;19.028;2023-12-14T06:26:09;97383.25;;;6.88;64.95
40982;BME280;26708;50.304;19.028;2023-12-14T06:28:19;97388.47;;;6.90;64.87
40982;BME280;26708;50.304;19.028;2023-12-14T06:30:24;97399.75;;;6.90;64.77
40982;BME280;26708;50.304;19.028;2023-12-14T06:32:34;97397.97;;;6.91;64.55
40982;BME280;26708;50.304;19.028;2023-12-14T06:34:41;97408.38;;;6.91;64.61
40982;BME280;26708;50.304;19.028;2023-12-14T06:36:43;97404.06;;;6.91;64.69
40982;BME280;26708;50.304;19.028;2023-12-14T06:38:50;97404.91;;;6.93;64.68
40982;BME280;26708;50.304;19.028;2023-12-14T06:40:54;97396.28;;;6.87;64.66
40982;BME280;26708;50.304;19.028;2023-12-14T06:42:56;97369.53;;;6.65;64.66
40982;BME280;26708;50.304;19.028;2023-12-14T06:45:02;97407.50;;;6.92;64.78
40982;BME280;26708;50.304;19.028;2023-12-14T06:47:16;97379.00;;;6.78;64.56
40982;BME280;26708;50.304;19.028;2023-12-14T06:49:26;97401.50;;;6.84;64.47
40982;BME280;26708;50.304;19.028;2023-12-14T06:51:31;97423.09;;;6.95;64.42
40982;BME280;26708;50.304;19.028;2023-12-14T06:53:39;97423.97;;;6.94;64.49
40982;BME280;26708;50.304;19.028;2023-12-14T06:55:49;97429.16;;;6.95;64.48
40982;BME280;26708;50.304;19.028;2023-12-14T06:57:54;97430.91;;;6.95;64.59
40982;BME280;26708;50.304;19.028;2023-12-14T06:59:59;97373.09;;;6.51;64.60
40982;BME280;26708;50.304;19.028;2023-12-14T07:02:08;97417.97;;;6.84;64.68
40982;BME280;26708;50.304;19.028;2023-12-14T07:04:11;97436.09;;;6.95;64.84
40982;BME280;26708;50.304;19.028;2023-12-14T07:06:20;97430.91;;;6.93;64.64
40982;BME280;26708;50.304;19.028;2023-12-14T07:08:30;97324.72;;;6.29;64.87
40982;BME280;26708;50.304;19.028;2023-12-14T07:10:34;97391.16;;;6.70;64.94
40982;BME280;26708;50.304;19.028;2023-12-14T07:12:42;97436.09;;;6.95;64.70
40982;BME280;26708;50.304;19.028;2023-12-14T07:14:54;97388.56;;;6.69;64.80
40982;BME280;26708;50.304;19.028;2023-12-14T07:17:04;97436.06;;;6.96;64.95
40982;BME280;26708;50.304;19.028;2023-12-14T07:19:13;97398.97;;;6.72;64.92
40982;BME280;26708;50.304;19.028;2023-12-14T07:21:23;97448.19;;;6.99;64.94
40982;BME280;26708;50.304;19.028;2023-12-14T07:23:28;97450.81;;;6.99;64.95
40982;BME280;26708;50.304;19.028;2023-12-14T07:25:33;97398.13;;;6.67;64.97
40982;BME280;26708;50.304;19.028;2023-12-14T07:27:42;97462.94;;;7.00;64.82
40982;BME280;26708;50.304;19.028;2023-12-14T07:29:51;97443.94;;;6.89;65.01
40982;BME280;26708;50.304;19.028;2023-12-14T07:31:57;97469.88;;;6.98;64.88
40982;BME280;26708;50.304;19.028;2023-12-14T07:34:03;97429.31;;;6.74;65.07
40982;BME280;26708;50.304;19.028;2023-12-14T07:36:11;97478.53;;;7.00;64.94
40982;BME280;26708;50.304;19.028;2023-12-14T07:38:20;97462.16;;;6.90;65.04
40982;BME280;26708;50.304;19.028;2023-12-14T07:40:24;97316.25;;;6.03;64.86
40982;BME280;26708;50.304;19.028;2023-12-14T07:42:30;97466.47;;;6.93;64.82
40982;BME280;26708;50.304;19.028;2023-12-14T07:44:35;97493.25;;;7.05;64.82
40982;BME280;26708;50.304;19.028;2023-12-14T07:46:41;97503.66;;;7.05;64.79
40982;BME280;26708;50.304;19.028;2023-12-14T07:48:45;97494.16;;;6.98;64.64
40982;BME280;26708;50.304;19.028;2023-12-14T07:50:50;97473.41;;;6.85;64.59
40982;BME280;26708;50.304;19.028;2023-12-14T07:52:55;97507.97;;;7.08;64.86
40982;BME280;26708;50.304;19.028;2023-12-14T07:55:07;97518.41;;;7.06;64.68
40982;BME280;26708;50.304;19.028;2023-12-14T07:57:17;97520.13;;;7.06;64.75
40982;BME280;26708;50.304;19.028;2023-12-14T07:59:22;97504.56;;;6.97;64.56
40982;BME280;26708;50.304;19.028;2023-12-14T08:01:27;97411.28;;;6.37;64.60
40982;BME280;26708;50.304;19.028;2023-12-14T08:03:32;97527.03;;;7.07;64.99
40982;BME280;26708;50.304;19.028;2023-12-14T08:05:36;97531.38;;;7.08;64.67
40982;BME280;26708;50.304;19.028;2023-12-14T08:07:40;97528.75;;;7.08;64.81
40982;BME280;26708;50.304;19.028;2023-12-14T08:09:46;97493.38;;;6.84;64.33
40982;BME280;26708;50.304;19.028;2023-12-14T08:11:55;97539.19;;;7.05;64.41
40982;BME280;26708;50.304;19.028;2023-12-14T08:14:03;97502.94;;;6.79;64.57
40982;BME280;26708;50.304;19.028;2023-12-14T08:16:10;97537.50;;;6.98;64.76
40982;BME280;26708;50.304;19.028;2023-12-14T08:18:12;97540.09;;;6.96;64.72
40982;BME280;26708;50.304;19.028;2023-12-14T08:20:17;97549.66;;;6.96;65.00
40982;BME280;26708;50.304;19.028;2023-12-14T08:22:24;97499.50;;;6.67;64.98
40982;BME280;26708;50.304;19.028;2023-12-14T08:24:33;97556.59;;;6.97;65.07
40982;BME280;26708;50.304;19.028;2023-12-14T08:26:42;97529.81;;;6.74;65.06
40982;BME280;26708;50.304;19.028;2023-12-14T08:29:02;97563.50;;;6.98;65.14
40982;BME280;26708;50.304;19.028;2023-12-14T08:31:07;97553.09;;;6.99;65.33
40982;BME280;26708;50.304;19.028;2023-12-14T08:33:14;97557.44;;;7.02;65.15
40982;BME280;26708;50.304;19.028;2023-12-14T08:35:21;97551.34;;;7.01;65.14
40982;BME280;26708;50.304;19.028;2023-12-14T08:37:27;97525.44;;;6.82;65.20
40982;BME280;26708;50.304;19.028;2023-12-14T08:39:35;97561.72;;;7.06;65.04
40982;BME280;26708;50.304;19.028;2023-12-14T08:41:39;97569.53;;;7.06;65.09
40982;BME280;26708;50.304;19.028;2023-12-14T08:43:46;97569.56;;;7.03;65.01
40982;BME280;26708;50.304;19.028;2023-12-14T08:45:55;97532.41;;;6.77;65.25
40982;BME280;26708;50.304;19.028;2023-12-14T08:48:04;97580.81;;;7.06;65.02
40982;BME280;26708;50.304;19.028;2023-12-14T08:50:09;97515.97;;;6.64;64.97
40982;BME280;26708;50.304;19.028;2023-12-14T08:52:18;97581.66;;;7.08;64.88
40982;BME280;26708;50.304;19.028;2023-12-14T08:54:23;97595.53;;;7.10;64.98
40982;BME280;26708;50.304;19.028;2023-12-14T08:56:25;97593.81;;;7.11;64.88
40982;BME280;26708;50.304;19.028;2023-12-14T08:58:30;97596.41;;;7.12;64.62
40982;BME280;26708;50.304;19.028;2023-12-14T09:00:34;97610.22;;;7.16;64.78
40982;BME280;26708;50.304;19.028;2023-12-14T09:02:42;97597.31;;;7.05;64.24
40982;BME280;26708;50.304;19.028;2023-12-14T09:04:48;97601.63;;;7.06;64.59
40982;BME280;26708;50.304;19.028;2023-12-14T09:06:51;97598.19;;;7.03;64.57
40982;BME280;26708;50.304;19.028;2023-12-14T09:08:56;97585.19;;;6.97;64.39
40982;BME280;26708;50.304;19.028;2023-12-14T09:11:01;97615.44;;;7.17;64.50
40982;BME280;26708;50.304;19.028;2023-12-14T09:13:06;97559.25;;;6.82;64.42
40982;BME280;26708;50.304;19.028;2023-12-14T09:15:11;97619.78;;;7.21;64.17
40982;BME280;26708;50.304;19.028;2023-12-14T09:17:13;97628.44;;;7.25;64.07
40982;BME280;26708;50.304;19.028;2023-12-14T09:19:21;97637.06;;;7.24;63.85
40982;BME280;26708;50.304;19.028;2023-12-14T09:21:28;97631.03;;;7.25;64.06
40982;BME280;26708;50.304;19.028;2023-12-14T09:23:35;97637.09;;;7.25;63.95
40982;BME280;26708;50.304;19.028;2023-12-14T09:25:43;97599.88;;;7.10;64.17
40982;BME280;26708;50.304;19.028;2023-12-14T09:27:48;97618.91;;;7.18;64.33
40982;BME280;26708;50.304;19.028;2023-12-14T09:29:53;97636.19;;;7.26;64.20
40982;BME280;26708;50.304;19.028;2023-12-14T09:31:58;97616.34;;;7.12;64.03
40982;BME280;26708;50.304;19.028;2023-12-14T09:34:03;97626.69;;;7.19;63.95
40982;BME280;26708;50.304;19.028;2023-12-14T09:36:11;97622.38;;;7.20;63.75
40982;BME280;26708;50.304;19.028;2023-12-14T09:38:15;97638.81;;;7.29;64.05
40982;BME280;26708;50.304;19.028;2023-12-14T09:40:20;97631.88;;;7.24;64.09
40982;BME280;26708;50.304;19.028;2023-12-14T09:42:24;97626.66;;;7.24;64.26
40982;BME280;26708;50.304;19.028;2023-12-14T09:44:29;97631.00;;;7.28;64.19
40982;BME280;26708;50.304;19.028;2023-12-14T09:46:37;97647.50;;;7.25;64.02
40982;BME280;26708;50.304;19.028;2023-12-14T09:48:50;97650.03;;;7.34;63.61
40982;BME280;26708;50.304;19.028;2023-12-14T09:50:55;97650.03;;;7.34;63.57
40982;BME280;26708;50.304;19.028;2023-12-14T09:52:59;97654.38;;;7.35;63.52
40982;BME280;26708;50.304;19.028;2023-12-14T09:55:06;97604.22;;;7.05;63.60
40982;BME280;26708;50.304;19.028;2023-12-14T09:57:18;97539.34;;;6.64;63.50
40982;BME280;26708;50.304;19.028;2023-12-14T09:59:24;97641.44;;;7.22;63.76
40982;BME280;26708;50.304;19.028;2023-12-14T10:01:31;97664.78;;;7.38;63.63
40982;BME280;26708;50.304;19.028;2023-12-14T10:03:36;97656.97;;;7.40;63.64
40982;BME280;26708;50.304;19.028;2023-12-14T10:05:44;97664.75;;;7.43;63.73
40982;BME280;26708;50.304;19.028;2023-12-14T10:07:55;97664.75;;;7.44;63.42
40982;BME280;26708;50.304;19.028;2023-12-14T10:10:13;97672.53;;;7.46;63.37
40982;BME280;26708;50.304;19.028;2023-12-14T10:12:18;97659.53;;;7.49;63.25
40982;BME280;26708;50.304;19.028;2023-12-14T10:14:25;97665.59;;;7.51;62.93
40982;BME280;26708;50.304;19.028;2023-12-14T10:16:32;97602.44;;;7.11;62.78
40982;BME280;26708;50.304;19.028;2023-12-14T10:18:37;97673.41;;;7.51;62.78
40982;BME280;26708;50.304;19.028;2023-12-14T10:20:42;97673.41;;;7.51;63.02
40982;BME280;26708;50.304;19.028;2023-12-14T10:22:48;97673.41;;;7.49;62.94
40982;BME280;26708;50.304;19.028;2023-12-14T10:24:50;97675.13;;;7.50;63.12
40982;BME280;26708;50.304;19.028;2023-12-14T10:26:58;97670.78;;;7.52;62.87
40982;BME280;26708;50.304;19.028;2023-12-14T10:29:04;97653.50;;;7.41;62.96
40982;BME280;26708;50.304;19.028;2023-12-14T10:31:11;97658.66;;;7.47;62.84
40982;BME280;26708;50.304;19.028;2023-12-14T10:33:17;97669.88;;;7.56;62.70
40982;BME280;26708;50.304;19.028;2023-12-14T10:35:21;97630.97;;;7.32;62.53
40982;BME280;26708;50.304;19.028;2023-12-14T10:37:26;97671.66;;;7.56;62.63
40982;BME280;26708;50.304;19.028;2023-12-14T10:39:34;97666.44;;;7.56;62.49
40982;BME280;26708;50.304;19.028;2023-12-14T10:41:39;97680.31;;;7.55;62.90
40982;BME280;26708;50.304;19.028;2023-12-14T10:43:48;97676.84;;;7.53;62.85
40982;BME280;26708;50.304;19.028;2023-12-14T10:45:55;97688.13;;;7.53;62.73
40982;BME280;26708;50.304;19.028;2023-12-14T10:48:01;97642.28;;;7.24;62.99
40982;BME280;26708;50.304;19.028;2023-12-14T10:50:06;97687.25;;;7.53;62.74
40982;BME280;26708;50.304;19.028;2023-12-14T10:52:13;97677.78;;;7.44;62.98
40982;BME280;26708;50.304;19.028;2023-12-14T10:54:18;97691.63;;;7.52;63.01
40982;BME280;26708;50.304;19.028;2023-12-14T10:56:23;97694.19;;;7.55;63.15
40982;BME280;26708;50.304;19.028;2023-12-14T10:58:48;97690.75;;;7.52;62.83
40982;BME280;26708;50.304;19.028;2023-12-14T11:00:59;97653.56;;;7.32;62.83
40982;BME280;26708;50.304;19.028;2023-12-14T11:03:05;97636.22;;;7.25;62.78
40982;BME280;26708;50.304;19.028;2023-12-14T11:05:12;97703.72;;;7.64;62.85
40982;BME280;26708;50.304;19.028;2023-12-14T11:07:43;97710.63;;;7.66;62.66
40982;BME280;26708;50.304;19.028;2023-12-14T11:09:52;97709.78;;;7.63;62.18
40982;BME280;26708;50.304;19.028;2023-12-14T11:11:57;97715.88;;;7.60;62.32
40982;BME280;26708;50.304;19.028;2023-12-14T11:14:11;97709.81;;;7.55;62.52
40982;BME280;26708;50.304;19.028;2023-12-14T11:16:20;97723.69;;;7.59;62.73
40982;BME280;26708;50.304;19.028;2023-12-14T11:18:27;97716.75;;;7.58;62.88
40982;BME280;26708;50.304;19.028;2023-12-14T11:20:47;97695.16;;;7.41;62.93
40982;BME280;26708;50.304;19.028;2023-12-14T11:22:51;97723.66;;;7.62;62.80